• Join FlightAware (Why Join?)
  • Login
  • US Flag 
07:19PM EDT


 

Airport Tracker/Info


-or-


 

Live Flight TrackerFlight Track Log ✈ UAL1206 ✈ 09-May-2013 ✈ KORD - KMCO

Flight Track Log - Related Links

Times and Time Zones

All times are in EDT time to prevent confusion due to time zone crossing. See the UAL1206 flight status page for this flight to view local times or setup timezone preferences in your user account.

Time Position Orientation Groundspeed Altitude Reporting Facility
EDT Latitude Longitude Course Direction KTS MPH feet Rate Location/Type
01:26PM 41.9440 -87.9090 220° Southwest 173 199 1,400  Level FlightAware
01:26PM 41.9340 -87.9120 193° South 180 207 1,800 1,800 Climbing FlightAware
01:26PM 41.9100 -87.9110 178° South 219 252 2,600 2,580 Climbing FlightAware
01:27PM 41.8790 -87.9050 172° South 232 267 4,200 3,000 Climbing FlightAware
01:27PM 41.8450 -87.8920 164° South 257 296 5,600 3,000 Climbing FlightAware
01:28PM 41.8190 -87.8810 162° South 261 300 7,000 3,360 Climbing FlightAware
01:28PM 41.7810 -87.8660 164° South 272 313 8,700 3,240 Climbing FlightAware
01:29PM 41.7320 -87.8470 164° South 286 329 10,800 3,120 Climbing FlightAware
01:30PM 41.6740 -87.8240 164° South 294 338 13,200 2,760 Climbing FlightAware
01:31PM 41.6110 -87.8000 164° South 318 366 15,000 1,920 Climbing FlightAware
01:31PM 41.5600 -87.7800 164° South 356 410 15,800 1,020 Climbing FlightAware
01:32PM 41.4840 -87.7500 164° South 407 468 16,400 1,500 Climbing FlightAware
01:33PM 41.4070 -87.7270 167° South 415 478 18,000 2,280 Climbing FlightAware
01:33PM 41.3290 -87.7250 179° South 417 480 19,500 2,220 Climbing FlightAware
01:34PM 41.2400 -87.7250 180° South 424 488 21,200 2,100 Climbing FlightAware
01:35PM 41.1540 -87.7190 177° South 434 499 22,700 1,860 Climbing FlightAware
01:35PM 41.0740 -87.7090 175° South 438 504 23,900 1,860 Climbing FlightAware
01:36PM 40.9880 -87.6970 174° South 443 510 25,200 1,680 Climbing FlightAware
01:37PM 40.9100 -87.6870 174° South 448 516 26,200 1,320 Climbing FlightAware
01:37PM 40.8190 -87.6740 174° South 456 525 27,100 1,260 Climbing FlightAware
01:38PM 40.7300 -87.6620 174° South 463 533 28,000 1,500 Climbing FlightAware
01:39PM 40.6380 -87.6500 174° South 462 532 29,300 1,620 Climbing FlightAware
01:40PM 40.5490 -87.6380 174° South 467 537 30,300 1,200 Climbing FlightAware
01:40PM 40.4570 -87.6260 174° South 473 544 31,000 1,080 Climbing FlightAware
01:41PM 40.3630 -87.6130 174° South 478 550 31,900 1,320 Climbing FlightAware
01:42PM 40.2770 -87.5820 165° South 490 564 32,800 1,200 Climbing FlightAware
01:42PM 40.1860 -87.5240 154° Southeast 499 574 33,600 1,200 Climbing FlightAware
01:43PM 40.1000 -87.4700 154° Southeast 498 573 34,500 1,320 Climbing FlightAware
01:44PM 40.0180 -87.4180 154° Southeast 495 570 35,400 1,260 Climbing FlightAware
01:44PM 39.9280 -87.3600 154° Southeast 493 567 36,300 1,080 Climbing FlightAware
01:45PM 39.8430 -87.3020 152° Southeast 493 567 37,000 480 Climbing FlightAware
01:46PM 39.7520 -87.2410 153° Southeast 495 570 37,000  Level FlightAware
01:46PM 39.6820 -87.1950 153° Southeast 495 570 37,000  Level FlightAware
01:47PM 39.5820 -87.1280 153° Southeast 497 572 37,000  Level FlightAware
01:48PM 39.4970 -87.0710 153° Southeast 498 573 37,000  Level FlightAware
01:49PM 39.4140 -87.0160 153° Southeast 499 574 37,000  Level FlightAware
01:49PM 39.3210 -86.9550 153° Southeast 498 573 37,000  Level FlightAware
01:50PM 39.2380 -86.9000 153° Southeast 500 575 37,000  Level FlightAware
01:51PM 39.1480 -86.8410 153° Southeast 501 577 37,000  Level FlightAware
01:51PM 39.0670 -86.7850 152° Southeast 501 577 37,000  Level FlightAware
01:52PM 38.9850 -86.7300 152° Southeast 501 577 37,000  Level FlightAware
01:53PM 38.8900 -86.6650 152° Southeast 501 577 37,000  Level FlightAware
01:54PM 38.8070 -86.6090 152° Southeast 502 578 37,000  Level FlightAware
01:54PM 38.7170 -86.5490 153° Southeast 502 578 37,000  Level FlightAware
01:55PM 38.6350 -86.4940 152° Southeast 503 579 37,000  Level FlightAware
01:56PM 38.5390 -86.4300 152° Southeast 504 580 37,000  Level FlightAware
01:56PM 38.4590 -86.3770 153° Southeast 504 580 37,000  Level FlightAware
01:57PM 38.3810 -86.3240 152° Southeast 505 581 37,000  Level FlightAware
01:58PM 38.2840 -86.2600 153° Southeast 505 581 37,000  Level FlightAware
01:58PM 38.2040 -86.2070 152° Southeast 505 581 37,000  Level FlightAware
01:59PM 38.1190 -86.1510 153° Southeast 506 582 37,000  Level FlightAware
02:00PM 38.0280 -86.0910 153° Southeast 507 583 37,000  Level FlightAware
02:00PM 37.9530 -86.0420 153° Southeast 507 583 37,000  Level FlightAware
02:01PM 37.8340 -85.9640 153° Southeast 508 585 37,000  Level FlightAware
02:02PM 37.7480 -85.9060 152° Southeast 508 585 37,000  Level FlightAware
02:03PM 37.6540 -85.8470 154° Southeast 507 583 37,000  Level FlightAware
02:03PM 37.5841 -85.8019 153° Southeast 506 582 37,000  Level FlightAware ADS-B
02:04PM 37.4690 -85.7270 153° Southeast 505 581 37,000  Level FlightAware
02:04PM 37.4585 -85.7205 154° Southeast 505 581 37,000  Level FlightAware ADS-B
02:05PM 37.3873 -85.6747 153° Southeast 505 581 37,000  Level FlightAware ADS-B
02:06PM 37.2960 -85.6160 153° Southeast 502 578 37,000  Level FlightAware
02:06PM 37.2741 -85.6019 153° Southeast 504 580 37,000  Level FlightAware ADS-B
02:06PM 37.2077 -85.5594 153° Southeast 502 578 37,000  Level FlightAware ADS-B
02:07PM 37.1450 -85.5195 153° Southeast 500 575 37,000  Level FlightAware ADS-B
02:07PM 37.0828 -85.4798 153° Southeast 500 575 37,000  Level FlightAware ADS-B
02:08PM 37.0100 -85.4334 153° Southeast 500 575 37,000  Level FlightAware ADS-B
02:09PM 36.9435 -85.3910 153° Southeast 499 574 37,000  Level FlightAware ADS-B
02:09PM 36.8814 -85.3515 153° Southeast 497 572 37,000  Level FlightAware ADS-B
02:10PM 36.8165 -85.3103 153° Southeast 496 571 37,000  Level FlightAware ADS-B
02:10PM 36.7526 -85.2699 153° Southeast 495 570 37,000  Level FlightAware ADS-B
02:11PM 36.6898 -85.2302 153° Southeast 494 568 37,000  Level FlightAware ADS-B
02:11PM 36.6265 -85.1929 155° Southeast 494 568 37,000  Level FlightAware ADS-B
02:11PM 36.5900 -85.1775 161° South 493 567 37,000  Level FlightAware ADS-B
02:12PM 36.5112 -85.1556 167° South 492 566 37,000  Level FlightAware ADS-B
02:12PM 36.4500 -85.1400 168° South 491 565 37,000  Level FlightAware
02:13PM 36.4237 -85.1328 168° South 492 566 37,000  Level FlightAware ADS-B
02:13PM 36.3566 -85.1155 168° South 490 564 37,000  Level FlightAware ADS-B
02:14PM 36.2847 -85.0971 168° South 487 560 37,000  Level FlightAware ADS-B
02:14PM 36.2174 -85.0798 168° South 484 557 37,000  Level FlightAware ADS-B
02:15PM 36.1481 -85.0622 168° South 482 555 37,000  Level FlightAware ADS-B
02:15PM 36.0821 -85.0453 168° South 480 552 37,000  Level FlightAware ADS-B
02:16PM 36.0130 -85.0275 168° South 478 550 37,000  Level FlightAware ADS-B
02:16PM 35.9467 -85.0103 168° South 475 547 37,000  Level FlightAware ADS-B
02:17PM 35.8820 -84.9938 168° South 473 544 37,000  Level FlightAware ADS-B
02:17PM 35.8176 -84.9773 168° South 475 547 37,000  Level FlightAware ADS-B
02:18PM 35.7522 -84.9607 168° South 474 545 37,000  Level FlightAware ADS-B
02:18PM 35.6866 -84.9442 168° South 475 547 37,000  Level FlightAware ADS-B
02:19PM 35.6126 -84.9253 168° South 475 547 37,000  Level FlightAware ADS-B
02:19PM 35.5481 -84.9088 168° South 474 545 37,000  Level FlightAware ADS-B
02:20PM 35.4835 -84.8926 168° South 474 545 37,000  Level FlightAware ADS-B
02:20PM 35.4173 -84.8760 168° South 474 545 37,000  Level FlightAware ADS-B
02:21PM 35.3525 -84.8597 168° South 474 545 37,000  Level FlightAware ADS-B
02:21PM 35.2877 -84.8435 168° South 474 545 37,000  Level FlightAware ADS-B
02:22PM 35.2097 -84.8240 168° South 470 541 37,000  Level FlightAware ADS-B
02:22PM 35.1451 -84.8078 168° South 469 540 37,000  Level FlightAware ADS-B
02:23PM 35.0804 -84.7916 168° South 467 537 37,000  Level FlightAware ADS-B
02:24PM 35.0130 -84.7748 168° South 466 536 37,000  Level FlightAware ADS-B
02:24PM 34.9497 -84.7589 168° South 464 534 37,000  Level FlightAware ADS-B
02:25PM 34.8700 -84.7390 168° South 462 532 37,000  Level FlightAware
02:25PM 34.7930 -84.7200 169° South 462 532 37,000  Level FlightAware
02:26PM 34.6910 -84.6950 169° South 461 531 37,000  Level FlightAware
02:27PM 34.5980 -84.6720 168° South 460 529 37,000  Level FlightAware
02:27PM 34.5674 -84.6642 168° South 460 529 37,000  Level FlightAware ADS-B
02:28PM 34.5040 -84.6480 168° South 462 532 37,000  Level FlightAware
02:28PM 34.4749 -84.6412 169° South 463 533 37,000  Level FlightAware ADS-B
02:28PM 34.4106 -84.6255 169° South 466 536 37,000  Level FlightAware ADS-B
02:29PM 34.3280 -84.6050 168° South 458 527 37,000  Level FlightAware
02:30PM 34.2440 -84.5850 169° South 458 527 37,000  Level FlightAware
02:30PM 34.1520 -84.5620 168° South 459 528 37,000  Level FlightAware
02:31PM 34.0760 -84.5440 169° South 460 529 37,000  Level FlightAware
02:32PM 33.9370 -84.5100 169° South 473 544 37,000  Level FlightAware
02:33PM 33.8560 -84.4900 168° South 475 547 37,000  Level FlightAware
02:33PM 33.8116 -84.4793 169° South 476 548 37,000  Level FlightAware ADS-B
02:34PM 33.7306 -84.4597 169° South 477 549 37,000  Level FlightAware ADS-B
02:34PM 33.6587 -84.4424 169° South 478 550 37,000  Level FlightAware ADS-B
02:35PM 33.5760 -84.4130 164° South 481 554 37,000  Level FlightAware
02:35PM 33.5137 -84.3870 161° South 479 551 37,000  Level FlightAware ADS-B
02:36PM 33.4260 -84.3500 161° South 477 549 37,000  Level FlightAware
02:37PM 33.3390 -84.3140 161° South 474 545 37,000  Level FlightAware
02:38PM 33.2450 -84.2750 161° South 473 544 37,000  Level FlightAware
02:38PM 33.1390 -84.2310 161° South 473 544 37,000  Level FlightAware
02:39PM 33.0590 -84.1980 161° South 474 545 37,000  Level FlightAware
02:40PM 32.9750 -84.1630 161° South 475 547 37,000  Level FlightAware
02:40PM 32.8820 -84.1250 161° South 478 550 37,000  Level FlightAware
02:42PM 32.6770 -84.0400 161° South 479 551 37,000  Level FlightAware
02:43PM 32.5870 -84.0040 161° South 478 550 37,000  Level FlightAware
02:43PM 32.5000 -83.9680 161° South 476 548 37,000  Level FlightAware
02:44PM 32.3820 -83.9200 161° South 475 547 37,000  Level FlightAware
02:45PM 32.3140 -83.8910 160° South 474 545 37,000  Level FlightAware
02:46PM 32.2440 -83.8610 160° South 474 545 37,000  Level FlightAware
02:47PM 32.1560 -83.8230 160° South 474 545 37,000  Level FlightAware
02:47PM 32.0860 -83.7930 160° South 474 545 37,000  Level FlightAware
02:48PM 32.0160 -83.7630 160° South 474 545 37,000  Level FlightAware
02:49PM 31.9460 -83.7330 160° South 474 545 37,000  Level FlightAware
02:49PM 31.8580 -83.6950 160° South 474 545 37,000  Level FlightAware
02:50PM 31.7880 -83.6650 160° South 474 545 37,000  Level FlightAware
02:51PM 31.7180 -83.6350 160° South 474 545 37,000  Level FlightAware
02:51PM 31.6480 -83.6050 160° South 474 545 37,000  Level FlightAware
02:52PM 31.5780 -83.5750 160° South 474 545 37,000  Level FlightAware
02:53PM 31.3740 -83.4040 144° Southeast 37,000  Level FlightAware
02:54PM 31.2847 -83.3447 144° Southeast 478 550 37,000  Level Jacksonville Center
02:55PM 31.1700 -83.2642 149° Southeast 478 550 37,000  Level Jacksonville Center
02:56PM 31.0533 -83.1836 149° Southeast 478 550 37,000 -1,260 Level Jacksonville Center
02:57PM 30.9386 -83.1081 151° Southeast 478 550 34,500 -3,000 Descending Jacksonville Center
02:58PM 30.8261 -83.0256 148° Southeast 478 550 31,100 -3,300 Descending Jacksonville Center
02:59PM 30.7239 -82.9578 150° Southeast 478 550 28,000 -2,100 Descending Jacksonville Center
03:00PM 30.5944 -82.8733 151° Southeast 478 550 26,900 -540 Descending Jacksonville Center
03:01PM 30.4919 -82.8033 150° Southeast 478 550 27,000 -960 Climbing Jacksonville Center
03:02PM 30.3750 -82.7217 149° Southeast 483 556 25,000 -1,020 Descending Jacksonville Center
03:03PM 30.2622 -82.6472 150° Southeast 478 550 25,000  Level Jacksonville Center
03:04PM 30.1472 -82.5731 151° Southeast 478 550 25,000  Level Jacksonville Center
03:05PM 30.0319 -82.4944 149° Southeast 478 550 25,000  Level Jacksonville Center
03:06PM 29.9128 -82.4228 152° Southeast 478 550 25,000 -1,620 Level Jacksonville Center
03:12PM 29.2040 -82.0840 152° Southeast 411 473 13,600 -1,800 Descending FlightAware
03:12PM 29.1360 -82.0520 158° South 406 467 13,000 -960 Descending FlightAware
03:13PM 29.0550 -82.0130 157° South 408 470 12,300 -540 Descending FlightAware
03:14PM 29.0000 -81.9870 158° South 408 470 12,300 -1,080 Level FlightAware
03:15PM 28.9170 -81.9470 157° South 360 414 10,800 -1,140 Descending FlightAware
03:15PM 28.8740 -81.9130 145° Southeast 363 418 10,800  Level FlightAware
03:16PM 28.8390 -81.8540 124° Southeast 366 421 10,800 -120 Level FlightAware
03:17PM 28.7910 -81.7720 124° Southeast 319 367 10,700 -660 Descending FlightAware
03:17PM 28.7570 -81.7130 123° Southeast 306 352 9,700 -1,380 Descending FlightAware
03:18PM 28.7380 -81.6790 123° Southeast 303 349 9,100 -1,020 Descending FlightAware
03:18PM 28.7150 -81.6390 123° Southeast 301 346 8,800 -360 Descending FlightAware
03:19PM 28.6980 -81.6070 121° Southeast 299 344 8,800  Level FlightAware
03:19PM 28.6940 -81.5990 120° Southeast 298 343 8,800  Level FlightAware
03:19PM 28.6710 -81.5540 120° Southeast 298 343 8,800  Level FlightAware
03:20PM 28.6560 -81.5250 121° Southeast 299 344 8,800  Level FlightAware
03:20PM 28.6410 -81.4970 121° Southeast 290 334 8,800  Level FlightAware
03:20PM 28.6290 -81.4730 120° Southeast 273 314 8,800  Level FlightAware
03:21PM 28.6160 -81.4470 120° Southeast 255 293 8,800  Level FlightAware
03:21PM 28.6010 -81.4290 134° Southeast 245 282 8,800  Level FlightAware
03:21PM 28.5840 -81.4240 166° South 237 273 8,800  Level FlightAware
03:22PM 28.5530 -81.4240 180° South 240 276 8,800  Level FlightAware
03:22PM 28.5320 -81.4240 180° South 239 275 8,800 -780 Level FlightAware
03:23PM 28.4910 -81.4240 180° South 229 264 8,100 -1,080 Descending FlightAware
03:23PM 28.4750 -81.4240 180° South 227 261 7,900 -960 Descending FlightAware
03:23PM 28.4430 -81.4240 180° South 233 268 7,400 -1,440 Descending FlightAware
03:24PM 28.4060 -81.4240 180° South 226 260 6,400 -1,680 Descending FlightAware
03:24PM 28.3820 -81.4240 180° South 230 265 5,900 -1,380 Descending FlightAware
03:25PM 28.3580 -81.4240 180° South 210 242 5,400 -1,320 Descending FlightAware
03:25PM 28.3190 -81.4230 179° South 212 244 4,500 -1,200 Descending FlightAware
03:26PM 28.2990 -81.4160 163° South 205 236 4,200 -1,380 Descending FlightAware
03:26PM 28.2890 -81.3920 115° Southeast 215 247 3,500 -1,560 Descending FlightAware
03:27PM 28.2910 -81.3630 86° East 209 241 2,900 -900 Descending FlightAware
03:27PM 28.2980 -81.3390 72° East 185 213 2,700 -780 Descending FlightAware
03:27PM 28.3050 -81.3320 41° Northeast 186 214 2,400 -1,620 Descending FlightAware
03:28PM 28.3250 -81.3270 12° North 181 208 1,900 -1,560 Descending FlightAware
03:28PM 28.3370 -81.3260 North 192 221 1,500 -1,380 Descending FlightAware
03:28PM 28.3620 -81.3260 360° North 179 206 1,000 -1,080 Descending FlightAware
03:28PM 28.3680 -81.3260 360° North 175 201 900 -960 Descending FlightAware
03:29PM 28.3960 -81.3260 360° North 159 183 300 -1,080 Descending FlightAware
03:29PM 28.4150 -81.3270 357° North 148 170 -720 Descending FlightAware